UKLR/RWN METAR and TAF weather

Enter ICAO airport designator
Station Type Date Time Source
UKLR METAR 2022/02/24 11:30 UTC NOAA

UKLR 241130Z VRB01MPS 9999 SCT023CB SCT023 04/01 Q1023 NOSIG


Station Type Date Time Source
UKLR Decoded METAR 2022/02/24 11:30 UTC NOAA

Rivne, Ukraine (UKLR) 50-35N 026-08E
Feb 24, 2022 - 06:30 AM EST / 2022.02.24 1130 UTC
Wind: Variable at 2 MPH (2 KT):0
Visibility: greater than 7 mile(s):0
Sky conditions: partly cloudy
Weather: Cumulonimbus clouds observed
Temperature: 39 F (4 C)
Dew Point: 33 F (1 C)
Relative Humidity: 80%
Pressure (altimeter): 30.21 in. Hg (1023 hPa)
ob: UKLR 241130Z VRB01MPS 9999 SCT023CB SCT023 04/01 Q1023 NOSIG
cycle: 11

Station Type Date Time Source
UKLR TAF 2019/08/16 12:15 UTC NOAA

TAF TAF UKLR 161105Z 1612/1821 35003MPS 9999 BKN020 SCT023CB

Example: see airport list